createdAt,value
2022-10-23T00:00:46.919Z,32.35
2022-10-23T00:03:14.194Z,33.55
2022-10-23T00:05:41.461Z,36.15
2022-10-23T00:08:08.808Z,36.35
2022-10-23T00:10:36.120Z,36.13
2022-10-23T00:13:03.267Z,36.30
2022-10-23T00:15:30.560Z,35.40
2022-10-23T00:17:57.825Z,40.42
2022-10-23T00:20:25.505Z,38.65
2022-10-23T00:22:52.698Z,44.92
2022-10-23T00:25:20.358Z,42.38
2022-10-23T00:27:47.488Z,41.03
2022-10-23T00:30:14.659Z,38.00
2022-10-23T00:32:41.837Z,38.95
2022-10-23T00:35:09.144Z,38.10
2022-10-23T00:37:36.254Z,41.03
2022-10-23T00:40:03.585Z,41.78
2022-10-23T00:42:30.710Z,43.13
2022-10-23T00:45:33.537Z,41.80
2022-10-23T00:48:01.384Z,42.35
2022-10-23T00:50:30.511Z,42.80
2022-10-23T00:52:59.850Z,49.25
2022-10-23T00:55:27.618Z,42.75
2022-10-23T00:57:54.758Z,49.08
2022-10-23T01:00:26.694Z,46.30
2022-10-23T01:02:54.098Z,42.30
2022-10-23T01:05:23.312Z,51.60
2022-10-23T01:07:56.348Z,45.13
2022-10-23T01:10:40.682Z,46.42
2022-10-23T01:13:17.555Z,57.38
2022-10-23T01:15:55.857Z,47.03
2022-10-23T01:18:23.088Z,46.80
2022-10-23T01:21:04.666Z,46.40
2022-10-23T01:23:40.745Z,46.45
2022-10-23T01:26:08.047Z,47.63
2022-10-23T01:28:40.538Z,49.28
2022-10-23T01:31:09.874Z,49.00
2022-10-23T01:33:41.617Z,50.90
2022-10-23T01:36:12.001Z,54.30
2022-10-23T01:38:42.132Z,50.63
2022-10-23T01:41:15.334Z,50.63
2022-10-23T01:43:42.776Z,52.05
2022-10-23T01:46:11.520Z,50.88
2022-10-23T01:48:38.763Z,52.15
2022-10-23T01:51:08.387Z,48.80
2022-10-23T01:53:38.520Z,50.08
2022-10-23T01:56:07.798Z,52.25
2022-10-23T01:58:36.826Z,50.53
2022-10-23T02:01:05.275Z,50.22
2022-10-23T02:03:33.890Z,55.65
2022-10-23T02:06:01.065Z,51.20
2022-10-23T02:08:28.490Z,51.47
2022-10-23T02:10:59.487Z,53.08
2022-10-23T02:13:30.643Z,49.22
2022-10-23T02:16:00.476Z,47.53
2022-10-23T02:18:42.749Z,52.83
2022-10-23T02:21:42.153Z,50.03
2022-10-23T02:24:16.866Z,51.50
2022-10-23T02:26:54.369Z,53.80
2022-10-23T02:29:26.647Z,50.33
2022-10-23T02:31:53.857Z,54.83
2022-10-23T02:34:21.040Z,52.08
2022-10-23T02:36:48.269Z,51.15
2022-10-23T02:39:15.398Z,53.03
2022-10-23T02:41:46.507Z,55.17
2022-10-23T02:44:28.969Z,52.53
2022-10-23T02:46:59.053Z,53.78
2022-10-23T02:49:41.450Z,53.42
2022-10-23T02:52:13.390Z,48.92
2022-10-23T02:54:43.408Z,55.45
2022-10-23T02:57:33.576Z,51.45
2022-10-23T03:00:03.873Z,51.75
2022-10-23T03:02:34.666Z,54.40
2022-10-23T03:05:02.417Z,48.17
2022-10-23T03:07:29.766Z,52.85
2022-10-23T03:09:56.893Z,54.35
2022-10-23T03:12:24.050Z,53.67
2022-10-23T03:14:51.246Z,53.50
2022-10-23T03:17:18.366Z,54.33
2022-10-23T03:19:45.503Z,56.70
2022-10-23T03:22:12.668Z,55.67
2022-10-23T03:24:39.788Z,57.50
2022-10-23T03:27:06.921Z,53.25
2022-10-23T03:29:34.150Z,50.50
2022-10-23T03:32:01.305Z,57.58
2022-10-23T03:34:28.434Z,53.53
2022-10-23T03:36:55.606Z,57.95
2022-10-23T03:39:23.067Z,59.10
2022-10-23T03:41:50.190Z,52.72
2022-10-23T03:44:17.461Z,54.58
2022-10-23T03:46:44.690Z,50.83
2022-10-23T03:49:11.841Z,56.38
2022-10-23T03:51:41.771Z,55.03
2022-10-23T03:54:09.227Z,55.60
2022-10-23T03:56:36.572Z,54.38
2022-10-23T03:59:03.769Z,57.63
2022-10-23T04:01:31.011Z,51.38
2022-10-23T04:03:58.137Z,53.28
2022-10-23T04:06:25.411Z,49.35
2022-10-23T04:08:52.587Z,50.78
2022-10-23T04:11:19.692Z,57.85
2022-10-23T04:13:47.089Z,58.38
2022-10-23T04:16:14.245Z,53.38
2022-10-23T04:18:42.109Z,52.00
2022-10-23T04:21:09.356Z,54.15
2022-10-23T04:23:36.472Z,51.65
2022-10-23T04:26:03.710Z,48.38
2022-10-23T04:28:30.952Z,47.13
2022-10-23T04:30:58.109Z,49.13
2022-10-23T04:33:25.387Z,48.22
2022-10-23T04:35:52.695Z,45.47
2022-10-23T04:38:19.819Z,49.97
2022-10-23T04:40:46.941Z,42.63
2022-10-23T04:43:14.143Z,51.15
2022-10-23T04:45:41.280Z,45.95
2022-10-23T04:48:08.456Z,47.70
2022-10-23T04:50:35.647Z,49.00
2022-10-23T04:53:02.805Z,48.05
2022-10-23T04:55:29.916Z,44.88
2022-10-23T04:57:57.098Z,43.15
2022-10-23T05:00:24.301Z,44.35
2022-10-23T05:02:51.432Z,44.80
2022-10-23T05:05:18.664Z,43.72
2022-10-23T05:07:46.057Z,43.10
2022-10-23T05:10:13.291Z,41.92
2022-10-23T05:12:40.483Z,42.25
2022-10-23T05:15:07.892Z,43.53
2022-10-23T05:17:36.361Z,40.38
2022-10-23T05:20:04.829Z,43.13
2022-10-23T05:22:33.610Z,40.58
2022-10-23T05:25:02.144Z,42.50
2022-10-23T05:27:29.468Z,40.78
2022-10-23T05:29:56.569Z,42.47
2022-10-23T05:32:24.987Z,42.40
2022-10-23T05:34:52.357Z,42.00
2022-10-23T05:37:19.666Z,41.63
2022-10-23T05:39:46.757Z,38.47
2022-10-23T05:42:13.925Z,39.22
2022-10-23T05:44:41.228Z,37.28
2022-10-23T05:47:08.520Z,33.78
2022-10-23T05:49:35.881Z,33.35
2022-10-23T05:52:02.986Z,30.40
2022-10-23T05:54:30.080Z,32.00
2022-10-23T05:56:57.564Z,29.95
2022-10-23T05:59:24.718Z,30.05
2022-10-23T06:01:51.971Z,28.58
2022-10-23T06:04:19.215Z,28.73
2022-10-23T06:06:47.170Z,26.52
2022-10-23T06:09:15.229Z,25.60
2022-10-23T06:11:43.195Z,27.38
2022-10-23T06:14:10.348Z,27.73
2022-10-23T06:16:37.460Z,28.38
2022-10-23T06:19:04.693Z,27.73
2022-10-23T06:21:31.829Z,29.27
2022-10-23T06:23:59.196Z,28.70
2022-10-23T06:26:26.380Z,29.30
2022-10-23T06:28:53.492Z,33.47
2022-10-23T06:31:23.600Z,30.20
2022-10-23T06:33:50.803Z,32.45
2022-10-23T06:36:18.053Z,35.67
2022-10-23T06:38:45.226Z,34.50
2022-10-23T06:41:13.957Z,33.83
2022-10-23T06:43:41.132Z,32.70
2022-10-23T06:46:08.460Z,33.20
2022-10-23T06:48:35.658Z,33.75
2022-10-23T06:51:07.612Z,34.05
2022-10-23T06:53:35.920Z,33.63
2022-10-23T06:56:04.295Z,30.42
2022-10-23T06:58:31.431Z,32.40
2022-10-23T07:01:02.541Z,31.85
2022-10-23T07:05:56.929Z,28.92
2022-10-23T07:08:24.137Z,31.60
2022-10-23T07:10:51.241Z,31.88
2022-10-23T07:13:18.482Z,30.80
2022-10-23T07:15:45.806Z,34.00
2022-10-23T07:18:16.507Z,31.17
2022-10-23T07:20:44.215Z,31.92
2022-10-23T07:23:12.775Z,31.75
2022-10-23T07:25:39.953Z,33.90
2022-10-23T07:28:07.694Z,35.08
2022-10-23T07:30:34.958Z,32.35
2022-10-23T07:33:02.133Z,35.50
2022-10-23T07:35:29.431Z,38.53
2022-10-23T07:37:56.789Z,37.95
2022-10-23T07:40:23.975Z,39.50
2022-10-23T07:42:51.161Z,40.25
2022-10-23T07:45:18.477Z,36.35
2022-10-23T07:47:50.843Z,41.33
2022-10-23T07:50:18.084Z,42.20
2022-10-23T07:52:45.592Z,38.38
2022-10-23T07:55:13.093Z,43.60
2022-10-23T07:57:40.261Z,41.83
2022-10-23T08:00:07.841Z,46.22
2022-10-23T08:02:35.065Z,42.58
2022-10-23T08:05:02.327Z,42.85
2022-10-23T08:07:29.603Z,44.00
2022-10-23T08:09:56.791Z,46.03
2022-10-23T08:12:24.002Z,46.45
2022-10-23T08:14:51.257Z,51.55
2022-10-23T08:17:18.501Z,49.10
2022-10-23T08:19:47.198Z,48.58
2022-10-23T08:22:14.625Z,53.22
2022-10-23T08:24:41.806Z,52.38
2022-10-23T08:27:09.026Z,55.35
2022-10-23T08:29:36.433Z,55.65
2022-10-23T08:32:03.689Z,59.00
2022-10-23T08:34:31.427Z,66.50
2022-10-23T08:36:58.716Z,62.05
2022-10-23T08:39:25.937Z,67.95
2022-10-23T08:41:53.433Z,58.47
2022-10-23T08:44:20.686Z,55.88
2022-10-23T08:47:08.140Z,56.88
2022-10-23T08:49:50.533Z,50.50
2022-10-23T08:52:17.717Z,51.92
2022-10-23T08:54:57.886Z,58.95
2022-10-23T08:57:33.102Z,53.65
2022-10-23T09:00:01.826Z,50.58
2022-10-23T09:02:31.604Z,53.28
2022-10-23T09:04:59.517Z,55.90
2022-10-23T09:07:45.500Z,50.05
2022-10-23T09:10:24.893Z,48.00
2022-10-23T09:12:52.181Z,53.90
2022-10-23T09:15:32.206Z,47.50
2022-10-23T09:18:01.007Z,46.83
2022-10-23T09:20:32.455Z,49.13
2022-10-23T09:23:13.320Z,47.50
2022-10-23T09:25:41.905Z,36.78
2022-10-23T09:28:18.142Z,47.42
2022-10-23T09:30:45.321Z,45.60
2022-10-23T09:33:26.667Z,43.50
2022-10-23T09:38:34.683Z,44.45
2022-10-23T09:41:13.017Z,43.67
2022-10-23T09:43:40.497Z,42.38
2022-10-23T09:46:09.333Z,42.88
2022-10-23T09:48:36.978Z,36.72
2022-10-23T09:51:05.607Z,38.17
2022-10-23T09:53:38.631Z,43.00
2022-10-23T09:56:11.860Z,34.83
2022-10-23T09:58:52.810Z,38.03
2022-10-23T10:01:27.230Z,40.03
2022-10-23T10:03:54.762Z,33.00
2022-10-23T10:06:24.049Z,34.20
2022-10-23T10:08:53.768Z,30.92
2022-10-23T10:11:25.162Z,33.00
2022-10-23T10:14:02.507Z,32.95
2022-10-23T10:16:32.863Z,32.10
2022-10-23T10:19:19.041Z,31.98
2022-10-23T10:21:51.428Z,37.70
2022-10-23T10:24:37.532Z,32.50
2022-10-23T10:27:04.689Z,35.67
2022-10-23T10:29:34.661Z,39.95
2022-10-23T10:32:10.712Z,34.15
2022-10-23T10:34:46.842Z,32.08
2022-10-23T10:37:26.173Z,30.55
2022-10-23T10:39:53.319Z,29.52
2022-10-23T10:42:44.970Z,29.73
2022-10-23T10:45:20.155Z,28.20
2022-10-23T10:48:04.481Z,27.38
2022-10-23T10:50:51.893Z,26.50
2022-10-23T10:53:25.204Z,26.10
2022-10-23T10:55:56.042Z,27.20
2022-10-23T10:58:26.364Z,24.98
2022-10-23T11:00:56.786Z,22.27
2022-10-23T11:03:34.804Z,22.35
2022-10-23T11:06:06.858Z,22.23
2022-10-23T11:08:56.175Z,21.23
2022-10-23T11:13:56.544Z,20.00
2022-10-23T11:19:13.852Z,18.60
2022-10-23T11:21:44.865Z,17.73
2022-10-23T11:24:12.093Z,16.55
2022-10-23T11:26:48.221Z,16.33
2022-10-23T11:29:30.571Z,15.93
2022-10-23T11:32:16.424Z,13.70
2022-10-23T11:34:46.689Z,14.77
2022-10-23T11:37:17.964Z,14.60
2022-10-23T11:42:14.266Z,18.48
2022-10-23T11:44:43.592Z,15.85
2022-10-23T11:47:29.614Z,14.60
2022-10-23T11:50:09.067Z,14.15
2022-10-23T11:52:50.426Z,14.77
2022-10-23T11:55:18.116Z,14.52
2022-10-23T11:57:47.329Z,14.10
2022-10-23T12:00:22.683Z,14.95
2022-10-23T12:02:59.066Z,13.95
2022-10-23T12:05:26.536Z,14.75
2022-10-23T12:07:58.590Z,14.85
2022-10-23T12:10:45.048Z,12.43
2022-10-23T12:13:33.226Z,9.85
2022-10-23T12:16:01.162Z,10.52
2022-10-23T12:18:28.599Z,11.85
2022-10-23T12:21:00.211Z,13.07
2022-10-23T12:23:33.429Z,12.23
2022-10-23T12:26:06.510Z,13.32
2022-10-23T12:28:45.543Z,11.82
2022-10-23T12:31:24.680Z,10.43
2022-10-23T12:33:57.327Z,8.40
2022-10-23T12:36:43.320Z,8.20
2022-10-23T12:39:46.118Z,8.10
2022-10-23T12:42:18.274Z,8.35
2022-10-23T12:44:45.453Z,7.10
2022-10-23T12:47:15.748Z,8.32
2022-10-23T12:49:48.842Z,7.57
2022-10-23T12:52:17.407Z,7.57
2022-10-23T12:54:44.612Z,7.28
2022-10-23T12:57:30.434Z,10.07
2022-10-23T13:00:12.774Z,8.70
2022-10-23T13:02:40.182Z,7.05
2022-10-23T13:05:08.810Z,7.07
2022-10-23T13:07:41.853Z,6.85
2022-10-23T13:10:14.823Z,8.00
2022-10-23T13:15:18.654Z,7.05
2022-10-23T13:18:00.875Z,9.10
2022-10-23T13:20:30.277Z,7.28
2022-10-23T13:23:00.710Z,9.48
2022-10-23T13:25:28.445Z,7.10
2022-10-23T13:28:24.752Z,8.30
2022-10-23T13:31:00.186Z,8.00
2022-10-23T13:33:31.719Z,6.30
2022-10-23T13:35:59.950Z,6.50
2022-10-23T13:38:34.305Z,7.63
2022-10-23T13:41:02.693Z,5.90
2022-10-23T13:43:30.807Z,6.13
2022-10-23T13:45:58.924Z,5.32
2022-10-23T13:48:26.683Z,7.35
2022-10-23T13:50:54.134Z,6.68
2022-10-23T13:53:21.354Z,6.95
2022-10-23T13:55:53.659Z,7.13
2022-10-23T13:58:23.508Z,7.53
2022-10-23T14:00:51.385Z,6.20
2022-10-23T14:03:20.453Z,6.57
2022-10-23T14:05:47.635Z,5.78
2022-10-23T14:08:14.841Z,7.05
2022-10-23T14:10:42.149Z,6.85
2022-10-23T14:13:09.355Z,13.40
2022-10-23T14:15:36.515Z,7.15
2022-10-23T14:18:08.059Z,7.28
2022-10-23T14:20:35.601Z,6.43
2022-10-23T14:23:02.819Z,7.47
2022-10-23T14:25:30.052Z,6.93
2022-10-23T14:27:57.236Z,6.85
2022-10-23T14:30:24.415Z,7.80
2022-10-23T14:32:53.125Z,8.43
2022-10-23T14:35:20.309Z,6.65
2022-10-23T14:37:47.557Z,8.57
2022-10-23T14:40:14.877Z,8.23
2022-10-23T14:42:42.188Z,7.00
2022-10-23T14:45:09.672Z,9.30
2022-10-23T14:47:36.980Z,8.50
2022-10-23T14:50:04.606Z,7.47
2022-10-23T14:52:31.809Z,8.88
2022-10-23T14:55:00.812Z,42.80
2022-10-23T14:57:28.152Z,7.53
2022-10-23T14:59:55.363Z,8.05
2022-10-23T15:02:22.551Z,10.85
2022-10-23T15:04:49.778Z,8.40
2022-10-23T15:07:17.030Z,7.55
2022-10-23T15:09:44.281Z,8.18
2022-10-23T15:12:11.475Z,10.35
2022-10-23T15:14:38.777Z,8.25
2022-10-23T15:17:06.035Z,10.30
2022-10-23T15:19:33.274Z,10.45
2022-10-23T15:22:00.450Z,9.50
2022-10-23T15:24:27.773Z,9.68
2022-10-23T15:26:55.013Z,8.70
2022-10-23T15:29:22.986Z,8.77
2022-10-23T15:31:54.546Z,8.55
2022-10-23T15:34:23.296Z,11.13
2022-10-23T15:36:51.005Z,10.50
2022-10-23T15:39:19.965Z,13.32
2022-10-23T15:41:47.569Z,12.10
2022-10-23T15:44:16.553Z,10.00
2022-10-23T15:46:43.921Z,10.50
2022-10-23T15:49:11.340Z,10.88
2022-10-23T15:51:39.017Z,11.27
2022-10-23T15:54:07.060Z,9.93
2022-10-23T15:56:34.663Z,11.32
2022-10-23T15:59:01.883Z,11.68
2022-10-23T16:01:29.271Z,11.52
2022-10-23T16:03:56.670Z,10.80
2022-10-23T16:06:23.912Z,11.95
2022-10-23T16:08:51.342Z,11.63
2022-10-23T16:11:20.562Z,10.93
2022-10-23T16:13:47.919Z,13.57
2022-10-23T16:16:15.681Z,12.57
2022-10-23T16:18:43.803Z,13.63
2022-10-23T16:21:17.230Z,12.40
2022-10-23T16:23:44.419Z,14.25
2022-10-23T16:26:11.663Z,12.75
2022-10-23T16:28:38.950Z,13.48
2022-10-23T16:31:10.347Z,13.40
2022-10-23T16:33:37.662Z,10.75
2022-10-23T16:36:07.951Z,11.43
2022-10-23T16:38:35.226Z,10.53
2022-10-23T16:41:04.925Z,10.90
2022-10-23T16:43:34.570Z,14.73
2022-10-23T16:46:04.936Z,14.32
2022-10-23T16:48:32.177Z,10.57
2022-10-23T16:50:59.479Z,12.13
2022-10-23T16:53:29.088Z,13.02
2022-10-23T16:55:59.653Z,11.40
2022-10-23T16:58:27.287Z,11.52
2022-10-23T17:01:18.002Z,11.10
2022-10-23T17:03:49.778Z,12.57
2022-10-23T17:06:18.609Z,13.18
2022-10-23T17:08:46.092Z,13.02
2022-10-23T17:11:18.154Z,14.30
2022-10-23T17:13:55.729Z,13.43
2022-10-23T17:16:28.052Z,15.38
2022-10-23T17:18:55.608Z,12.05
2022-10-23T17:21:23.268Z,13.93
2022-10-23T17:23:50.982Z,11.40
2022-10-23T17:26:19.654Z,12.35
2022-10-23T17:28:46.884Z,12.05
2022-10-23T17:31:15.741Z,11.48
2022-10-23T17:33:43.678Z,13.50
2022-10-23T17:36:11.570Z,12.25
2022-10-23T17:38:39.441Z,14.52
2022-10-23T17:41:07.584Z,13.77
2022-10-23T17:43:34.950Z,13.00
2022-10-23T17:46:03.583Z,11.75
2022-10-23T17:48:30.776Z,13.52
2022-10-23T17:51:24.045Z,10.82
2022-10-23T17:53:52.351Z,14.35
2022-10-23T17:56:22.462Z,12.75
2022-10-23T17:58:50.348Z,12.13
2022-10-23T18:01:20.025Z,11.77
2022-10-23T18:03:47.342Z,12.50
2022-10-23T18:06:16.030Z,12.02
2022-10-23T18:08:43.909Z,13.15
2022-10-23T18:11:22.224Z,13.07
2022-10-23T18:13:49.519Z,11.40
2022-10-23T18:16:17.002Z,10.63
2022-10-23T18:18:44.754Z,13.43
2022-10-23T18:21:12.029Z,10.75
2022-10-23T18:23:39.149Z,12.43
2022-10-23T18:26:06.608Z,9.75
2022-10-23T18:28:33.828Z,11.20
2022-10-23T18:31:00.996Z,10.10
2022-10-23T18:33:28.104Z,10.77
2022-10-23T18:35:55.380Z,11.30
2022-10-23T18:38:22.553Z,8.52
2022-10-23T18:40:54.042Z,9.57
2022-10-23T18:43:42.023Z,10.05
2022-10-23T18:46:08.329Z,12.10
2022-10-23T18:48:36.281Z,9.60
2022-10-23T18:51:03.415Z,11.73
2022-10-23T18:53:30.577Z,9.48
2022-10-23T18:55:57.740Z,10.60
2022-10-23T18:58:24.903Z,10.43
2022-10-23T19:00:52.022Z,10.98
2022-10-23T19:03:19.255Z,10.45
2022-10-23T19:05:46.894Z,10.20
2022-10-23T19:08:14.249Z,10.50
2022-10-23T19:10:43.125Z,13.10
2022-10-23T19:13:10.309Z,10.75
2022-10-23T19:15:37.723Z,12.45
2022-10-23T19:18:06.806Z,10.57
2022-10-23T19:20:34.395Z,11.45
2022-10-23T19:23:01.842Z,16.80
2022-10-23T19:25:30.430Z,10.70
2022-10-23T19:27:58.193Z,11.48
2022-10-23T19:30:25.660Z,10.02
2022-10-23T19:32:52.994Z,10.57
2022-10-23T19:35:20.853Z,10.57
2022-10-23T19:37:48.158Z,11.80
2022-10-23T19:40:15.628Z,10.27
2022-10-23T19:42:43.824Z,10.15
2022-10-23T19:45:14.454Z,9.10
2022-10-23T19:47:42.743Z,14.48
2022-10-23T19:50:10.708Z,13.00
2022-10-23T19:52:38.346Z,10.48
2022-10-23T19:55:06.444Z,14.05
2022-10-23T19:57:34.074Z,10.48
2022-10-23T20:00:02.020Z,13.45
2022-10-23T20:02:29.610Z,10.13
2022-10-23T20:04:56.926Z,9.20
2022-10-23T20:07:24.079Z,9.40
2022-10-23T20:09:51.312Z,11.88
2022-10-23T20:12:18.446Z,10.65
2022-10-23T20:14:45.583Z,10.57
2022-10-23T20:17:12.802Z,10.93
2022-10-23T20:19:39.957Z,9.48
2022-10-23T20:22:07.094Z,11.07
2022-10-23T20:24:34.466Z,10.50
2022-10-23T20:27:01.638Z,10.75
2022-10-23T20:29:29.708Z,10.90
2022-10-23T20:31:56.905Z,12.05
2022-10-23T20:34:24.057Z,9.02
2022-10-23T20:36:51.299Z,10.43
2022-10-23T20:39:25.562Z,10.30
2022-10-23T20:41:53.109Z,11.98
2022-10-23T20:44:20.474Z,9.77
2022-10-23T20:46:47.993Z,9.65
2022-10-23T20:49:15.242Z,11.82
2022-10-23T20:51:42.722Z,11.73
2022-10-23T20:54:09.883Z,9.60
2022-10-23T20:56:38.363Z,11.52
2022-10-23T20:59:07.213Z,13.50
2022-10-23T21:01:35.181Z,11.10
2022-10-23T21:04:03.391Z,10.93
2022-10-23T21:06:45.898Z,12.13
2022-10-23T21:09:20.485Z,12.40
2022-10-23T21:11:47.749Z,11.18
2022-10-23T21:14:14.894Z,9.60
2022-10-23T21:16:44.465Z,12.00
2022-10-23T21:19:12.924Z,11.57
2022-10-23T21:21:40.080Z,11.07
2022-10-23T21:24:08.524Z,9.18
2022-10-23T21:26:35.649Z,10.82
2022-10-23T21:29:19.746Z,11.73
2022-10-23T21:31:57.010Z,11.60
2022-10-23T21:34:24.630Z,10.43
2022-10-23T21:39:38.968Z,9.50
2022-10-23T21:42:06.195Z,11.48
2022-10-23T21:44:33.357Z,10.90
2022-10-23T21:47:00.504Z,10.73
2022-10-23T21:49:27.703Z,11.13
2022-10-23T21:51:55.148Z,11.77
2022-10-23T21:54:22.555Z,11.50
2022-10-23T21:56:51.735Z,12.30
2022-10-23T21:59:20.141Z,13.25
2022-10-23T22:01:48.311Z,12.23
2022-10-23T22:04:19.815Z,12.35
2022-10-23T22:06:48.362Z,11.70
2022-10-23T22:09:17.401Z,14.73
2022-10-23T22:11:44.559Z,10.02
2022-10-23T22:14:11.736Z,11.80
2022-10-23T22:16:38.884Z,13.55
2022-10-23T22:19:05.996Z,13.38
2022-10-23T22:21:33.205Z,12.48
2022-10-23T22:24:01.110Z,12.70
2022-10-23T22:26:32.786Z,10.70
2022-10-23T22:29:01.422Z,12.13
2022-10-23T22:31:29.794Z,12.32
2022-10-23T22:33:57.422Z,13.52
2022-10-23T22:36:24.828Z,14.20
2022-10-23T22:38:51.974Z,12.50
2022-10-23T22:41:19.736Z,12.95
2022-10-23T22:43:46.877Z,18.02
2022-10-23T22:46:15.542Z,12.48
2022-10-23T22:48:42.733Z,13.95
2022-10-23T22:51:11.308Z,15.30
2022-10-23T22:53:38.418Z,11.90
2022-10-23T22:56:10.079Z,14.23
2022-10-23T22:58:37.461Z,11.52
2022-10-23T23:01:04.656Z,14.07
2022-10-23T23:03:32.004Z,13.50
2022-10-23T23:05:59.189Z,16.73
2022-10-23T23:08:26.990Z,12.40
2022-10-23T23:10:54.853Z,14.05
2022-10-23T23:13:22.027Z,14.45
2022-10-23T23:15:49.188Z,11.00
2022-10-23T23:18:16.740Z,12.02
2022-10-23T23:20:44.107Z,16.75
2022-10-23T23:23:12.450Z,11.63
2022-10-23T23:25:43.393Z,10.27
2022-10-23T23:28:12.204Z,12.60
2022-10-23T23:30:39.951Z,13.13
2022-10-23T23:33:07.590Z,11.38
2022-10-23T23:35:34.716Z,13.88
2022-10-23T23:38:01.870Z,13.30
2022-10-23T23:40:29.076Z,12.27
2022-10-23T23:42:56.196Z,11.95
2022-10-23T23:45:23.333Z,10.57
2022-10-23T23:47:50.600Z,15.95
2022-10-23T23:50:18.088Z,11.45
2022-10-23T23:52:45.303Z,11.10
2022-10-23T23:55:12.954Z,13.35
2022-10-23T23:57:40.105Z,11.18
